createdAt,value
2019-04-11T00:01:48.151Z,6.60
2019-04-11T00:04:15.731Z,6.50
2019-04-11T00:06:44.210Z,6.50
2019-04-11T00:09:14.586Z,6.50
2019-04-11T00:11:44.196Z,6.50
2019-04-11T00:14:13.822Z,6.50
2019-04-11T00:16:43.478Z,6.50
2019-04-11T00:19:12.274Z,6.50
2019-04-11T00:21:41.334Z,6.40
2019-04-11T00:24:10.395Z,6.40
2019-04-11T00:26:38.922Z,6.30
2019-04-11T00:29:08.514Z,6.30
2019-04-11T00:31:36.968Z,6.20
2019-04-11T00:34:06.752Z,6.20
2019-04-11T00:36:36.659Z,6.10
2019-04-11T00:39:07.945Z,6.10
2019-04-11T00:41:37.616Z,6.00
2019-04-11T00:44:06.349Z,6.10
2019-04-11T00:46:34.888Z,6.00
2019-04-11T00:49:03.327Z,6.00
2019-04-11T00:51:31.937Z,6.00
2019-04-11T00:54:00.646Z,6.00
2019-04-11T00:56:30.375Z,6.00
2019-04-11T00:59:00.181Z,6.00
2019-04-11T01:01:28.986Z,5.90
2019-04-11T01:03:57.676Z,5.90
2019-04-11T01:06:26.304Z,5.90
2019-04-11T01:08:55.804Z,5.90
2019-04-11T01:11:24.357Z,5.90
2019-04-11T01:13:55.275Z,6.00
2019-04-11T01:16:34.776Z,6.00
2019-04-11T01:19:04.540Z,5.90
2019-04-11T01:21:33.352Z,5.80
2019-04-11T01:24:03.857Z,5.80
2019-04-11T01:26:33.000Z,5.80
2019-04-11T01:29:02.940Z,5.80
2019-04-11T01:31:33.729Z,5.70
2019-04-11T01:34:02.457Z,5.60
2019-04-11T01:36:31.147Z,5.70
2019-04-11T01:39:18.969Z,5.60
2019-04-11T01:41:47.583Z,5.50
2019-04-11T01:44:16.545Z,5.50
2019-04-11T01:46:45.005Z,5.50
2019-04-11T01:49:18.152Z,5.50
2019-04-11T01:51:47.581Z,5.40
2019-04-11T01:54:16.107Z,5.40
2019-04-11T01:56:45.390Z,5.30
2019-04-11T01:59:13.966Z,5.30
2019-04-11T02:01:56.909Z,5.20
2019-04-11T02:04:30.036Z,5.20
2019-04-11T02:06:58.945Z,5.10
2019-04-11T02:09:28.318Z,5.10
2019-04-11T02:11:58.141Z,5.10
2019-04-11T02:14:27.883Z,5.10
2019-04-11T02:16:57.073Z,5.00
2019-04-11T02:19:25.986Z,4.90
2019-04-11T02:21:56.069Z,4.90
2019-04-11T02:24:26.096Z,4.90
2019-04-11T02:26:59.096Z,4.90
2019-04-11T02:29:27.712Z,4.90
2019-04-11T02:31:57.411Z,4.90
2019-04-11T02:34:27.741Z,4.80
2019-04-11T02:36:58.012Z,4.80
2019-04-11T02:39:27.470Z,4.90
2019-04-11T02:41:57.037Z,4.80
2019-04-11T02:44:36.669Z,4.80
2019-04-11T02:47:05.252Z,4.80
2019-04-11T02:49:27.922Z,4.80
2019-04-11T02:51:58.481Z,4.80
2019-04-11T02:54:28.397Z,4.90
2019-04-11T02:56:57.791Z,4.80
2019-04-11T02:59:29.669Z,4.70
2019-04-11T03:01:58.140Z,4.70
2019-04-11T03:04:27.111Z,4.70
2019-04-11T03:06:57.454Z,4.70
2019-04-11T03:09:26.959Z,4.70
2019-04-11T03:11:56.800Z,4.60
2019-04-11T03:14:25.409Z,4.70
2019-04-11T03:17:04.169Z,4.60
2019-04-11T03:19:38.970Z,4.60
2019-04-11T03:21:56.592Z,4.50
2019-04-11T03:24:27.086Z,4.50
2019-04-11T03:26:58.031Z,4.50
2019-04-11T03:29:27.105Z,4.40
2019-04-11T03:32:37.074Z,4.40
2019-04-11T03:37:24.164Z,4.40
2019-04-11T03:39:50.844Z,4.40
2019-04-11T03:42:14.108Z,4.30
2019-04-11T03:44:35.742Z,4.30
2019-04-11T03:47:16.569Z,4.10
2019-04-11T03:49:39.944Z,4.10
2019-04-11T03:52:01.207Z,4.10
2019-04-11T03:54:31.849Z,4.20
2019-04-11T03:57:01.198Z,4.20
2019-04-11T03:59:31.437Z,4.20
2019-04-11T04:02:00.806Z,4.20
2019-04-11T04:04:29.645Z,4.40
2019-04-11T04:06:58.554Z,4.30
2019-04-11T04:09:29.289Z,4.10
2019-04-11T04:11:59.070Z,4.20
2019-04-11T04:14:32.621Z,4.20
2019-04-11T04:17:10.658Z,4.10
2019-04-11T04:19:45.547Z,4.00
2019-04-11T04:22:24.540Z,4.10
2019-04-11T04:24:53.897Z,4.10
2019-04-11T04:27:25.477Z,4.10
2019-04-11T04:29:57.451Z,4.10
2019-04-11T04:32:25.051Z,4.10
2019-04-11T04:34:53.571Z,4.10
2019-04-11T04:37:24.823Z,4.10
2019-04-11T04:40:16.304Z,4.00
2019-04-11T04:42:31.089Z,4.10
2019-04-11T04:44:53.862Z,4.10
2019-04-11T04:47:32.771Z,4.20
2019-04-11T04:49:54.375Z,4.20
2019-04-11T04:52:22.986Z,4.30
2019-04-11T04:54:52.827Z,4.30
2019-04-11T04:57:21.828Z,4.20
2019-04-11T04:59:50.592Z,4.20
2019-04-11T05:02:20.517Z,4.20
2019-04-11T05:04:49.618Z,4.30
2019-04-11T05:07:19.431Z,4.40
2019-04-11T05:09:48.187Z,4.40
2019-04-11T05:12:18.246Z,4.30
2019-04-11T05:14:47.765Z,4.30
2019-04-11T05:17:17.142Z,4.20
2019-04-11T05:19:46.580Z,4.30
2019-04-11T05:22:15.048Z,4.40
2019-04-11T05:24:43.497Z,4.50
2019-04-11T05:27:12.558Z,4.80
2019-04-11T05:29:41.757Z,5.50
2019-04-11T05:32:11.739Z,5.90
2019-04-11T05:34:44.125Z,5.90
2019-04-11T05:37:13.889Z,5.90
2019-04-11T05:39:44.885Z,5.70
2019-04-11T05:42:15.871Z,5.90
2019-04-11T05:44:45.457Z,6.20
2019-04-11T05:47:19.890Z,6.50
2019-04-11T05:49:53.263Z,6.60
2019-04-11T05:52:22.426Z,6.30
2019-04-11T05:55:00.625Z,6.50
2019-04-11T05:57:35.217Z,6.50
2019-04-11T05:59:59.387Z,6.50
2019-04-11T06:02:37.455Z,6.40
2019-04-11T06:05:24.463Z,6.70
2019-04-11T06:07:57.587Z,7.10
2019-04-11T06:10:28.591Z,7.10
2019-04-11T06:13:16.417Z,6.70
2019-04-11T06:15:49.288Z,6.60
2019-04-11T06:18:37.497Z,6.50
2019-04-11T06:21:13.228Z,6.40
2019-04-11T06:23:49.856Z,6.40
2019-04-11T06:26:27.971Z,6.30
2019-04-11T06:29:01.455Z,6.50
2019-04-11T06:31:45.779Z,6.70
2019-04-11T06:34:18.689Z,6.70
2019-04-11T06:37:05.902Z,6.60
2019-04-11T06:39:56.699Z,6.50
2019-04-11T06:42:31.914Z,6.40
2019-04-11T06:45:04.447Z,6.60
2019-04-11T06:47:51.340Z,6.70
2019-04-11T06:50:27.660Z,6.60
2019-04-11T06:52:56.212Z,6.70
2019-04-11T06:55:37.040Z,6.60
2019-04-11T06:58:09.257Z,6.80
2019-04-11T07:00:39.401Z,7.00
2019-04-11T07:03:18.714Z,7.20
2019-04-11T07:05:40.697Z,7.10
2019-04-11T07:08:13.811Z,7.30
2019-04-11T07:10:51.115Z,7.40
2019-04-11T07:13:26.048Z,7.30
2019-04-11T07:15:57.664Z,8.00
2019-04-11T07:18:37.845Z,8.40
2019-04-11T07:21:08.530Z,8.30
2019-04-11T07:23:57.598Z,7.90
2019-04-11T07:26:33.121Z,8.00
2019-04-11T07:29:07.213Z,8.10
2019-04-11T07:31:55.231Z,7.80
2019-04-11T07:34:45.770Z,7.90
2019-04-11T07:37:33.079Z,8.40
2019-04-11T07:40:13.462Z,8.40
2019-04-11T07:42:57.174Z,9.10
2019-04-11T07:45:25.302Z,9.90
2019-04-11T07:48:10.824Z,10.60
2019-04-11T07:50:39.951Z,11.20
2019-04-11T07:53:12.957Z,11.50
2019-04-11T07:55:44.770Z,12.10
2019-04-11T07:58:24.006Z,12.40
2019-04-11T08:01:12.542Z,12.90
2019-04-11T08:03:55.723Z,13.10
2019-04-11T08:06:42.955Z,12.70
2019-04-11T08:09:35.746Z,13.20
2019-04-11T08:12:04.487Z,13.40
2019-04-11T08:14:42.481Z,13.50
2019-04-11T08:17:27.964Z,13.80
2019-04-11T08:20:08.060Z,14.20
2019-04-11T08:22:41.755Z,13.60
2019-04-11T08:25:13.282Z,13.70
2019-04-11T08:27:58.309Z,13.70
2019-04-11T08:30:24.696Z,13.50
2019-04-11T08:33:00.685Z,13.90
2019-04-11T08:35:36.577Z,13.70
2019-04-11T08:38:09.935Z,13.30
2019-04-11T08:40:45.637Z,12.40
2019-04-11T08:43:19.007Z,13.20
2019-04-11T08:46:08.704Z,13.20
2019-04-11T08:48:42.441Z,13.70
2019-04-11T08:51:16.883Z,13.70
2019-04-11T08:54:04.981Z,13.10
2019-04-11T08:56:38.962Z,13.30
2019-04-11T08:59:13.453Z,14.00
2019-04-11T09:01:44.484Z,13.10
2019-04-11T09:04:18.420Z,13.70
2019-04-11T09:06:50.175Z,14.40
2019-04-11T09:09:20.917Z,13.50
2019-04-11T09:11:52.238Z,13.60
2019-04-11T09:14:22.708Z,13.70
2019-04-11T09:16:56.213Z,13.20
2019-04-11T09:19:45.274Z,12.40
2019-04-11T09:22:17.942Z,12.80
2019-04-11T09:24:54.727Z,13.90
2019-04-11T09:27:44.845Z,13.80
2019-04-11T09:30:33.306Z,14.00
2019-04-11T09:33:14.951Z,13.60
2019-04-11T09:35:45.374Z,13.00
2019-04-11T09:38:18.451Z,13.60
2019-04-11T09:40:57.015Z,11.90
2019-04-11T09:43:28.218Z,12.00
2019-04-11T09:46:15.033Z,12.20
2019-04-11T09:49:02.613Z,12.80
2019-04-11T09:51:42.571Z,13.20
2019-04-11T09:54:15.654Z,13.00
2019-04-11T09:56:54.101Z,14.20
2019-04-11T09:59:31.621Z,14.00
2019-04-11T10:02:05.848Z,13.10
2019-04-11T10:04:36.061Z,13.10
2019-04-11T10:07:21.702Z,13.00
2019-04-11T10:10:04.560Z,13.60
2019-04-11T10:12:52.463Z,13.70
2019-04-11T10:15:27.220Z,13.50
2019-04-11T10:18:25.331Z,12.90
2019-04-11T10:20:46.929Z,12.70
2019-04-11T10:23:34.534Z,12.30
2019-04-11T10:26:03.739Z,12.40
2019-04-11T10:28:53.664Z,13.20
2019-04-11T10:31:24.181Z,13.40
2019-04-11T10:33:59.832Z,13.50
2019-04-11T10:36:34.931Z,13.60
2019-04-11T10:39:21.605Z,13.90
2019-04-11T10:41:53.863Z,13.60
2019-04-11T10:44:29.941Z,13.20
2019-04-11T10:47:08.307Z,13.30
2019-04-11T10:49:39.912Z,13.20
2019-04-11T10:52:14.096Z,13.00
2019-04-11T10:54:45.757Z,13.00
2019-04-11T10:57:34.394Z,13.10
2019-04-11T11:00:07.181Z,13.30
2019-04-11T11:02:41.972Z,13.50
2019-04-11T11:05:17.959Z,13.60
2019-04-11T11:07:51.027Z,13.80
2019-04-11T11:10:25.701Z,13.50
2019-04-11T11:12:57.967Z,13.40
2019-04-11T11:15:33.793Z,13.60
2019-04-11T11:20:58.832Z,13.50
2019-04-11T11:23:45.065Z,13.60
2019-04-11T11:26:22.841Z,13.70
2019-04-11T11:29:14.625Z,13.30
2019-04-11T11:31:47.531Z,13.50
2019-04-11T11:34:22.096Z,13.70
2019-04-11T11:36:56.676Z,14.00
2019-04-11T11:39:43.731Z,13.20
2019-04-11T11:42:30.801Z,13.70
2019-04-11T11:45:29.837Z,14.00
2019-04-11T11:48:02.763Z,14.50
2019-04-11T11:50:34.312Z,14.30
2019-04-11T11:53:13.294Z,14.10
2019-04-11T11:55:45.319Z,13.50
2019-04-11T11:58:33.466Z,13.90
2019-04-11T12:01:08.490Z,13.90
2019-04-11T12:03:55.390Z,13.70
2019-04-11T12:06:25.412Z,13.60
2019-04-11T12:09:14.064Z,13.20
2019-04-11T12:11:55.565Z,12.90
2019-04-11T12:14:44.982Z,12.90
2019-04-11T12:17:20.884Z,12.70
2019-04-11T12:19:55.027Z,12.50
2019-04-11T12:22:21.866Z,12.60
2019-04-11T12:24:56.581Z,12.60
2019-04-11T12:27:31.151Z,12.60
2019-04-11T12:30:21.001Z,12.50
2019-04-11T12:32:55.112Z,12.40
2019-04-11T12:35:32.604Z,12.40
2019-04-11T12:38:14.702Z,12.50
2019-04-11T12:41:02.965Z,12.50
2019-04-11T12:43:39.432Z,12.50
2019-04-11T12:46:29.982Z,12.50
2019-04-11T12:49:00.332Z,12.50
2019-04-11T12:51:48.960Z,12.50
2019-04-11T12:54:19.374Z,12.40
2019-04-11T12:56:52.176Z,12.60
2019-04-11T12:59:20.760Z,12.50
2019-04-11T13:02:06.889Z,12.60
2019-04-11T13:04:35.591Z,12.50
2019-04-11T13:10:24.135Z,12.50
2019-04-11T13:13:12.153Z,12.50
2019-04-11T13:15:44.829Z,12.70
2019-04-11T13:18:17.816Z,12.80
2019-04-11T13:20:53.670Z,12.70
2019-04-11T13:23:55.596Z,12.70
2019-04-11T13:26:46.334Z,12.60
2019-04-11T13:29:25.460Z,12.60
2019-04-11T13:32:14.637Z,12.70
2019-04-11T13:34:47.536Z,12.70
2019-04-11T13:37:21.862Z,12.80
2019-04-11T13:40:12.196Z,12.70
2019-04-11T13:43:00.022Z,12.50
2019-04-11T13:45:34.316Z,12.70
2019-04-11T13:48:21.572Z,12.70
2019-04-11T13:50:53.811Z,12.80
2019-04-11T13:53:40.824Z,12.90
2019-04-11T13:56:10.908Z,12.90
2019-04-11T13:58:57.890Z,12.80
2019-04-11T14:01:28.192Z,12.80
2019-04-11T14:04:01.943Z,12.70
2019-04-11T14:06:37.050Z,12.70
2019-04-11T14:09:10.180Z,12.60
2019-04-11T14:11:41.970Z,12.50
2019-04-11T14:14:14.306Z,12.70
2019-04-11T14:16:44.764Z,12.80
2019-04-11T14:19:31.059Z,12.60
2019-04-11T14:25:11.445Z,12.80
2019-04-11T14:27:41.111Z,12.80
2019-04-11T14:30:28.684Z,12.80
2019-04-11T14:32:57.231Z,12.80
2019-04-11T14:35:42.629Z,12.90
2019-04-11T14:38:15.081Z,13.00
2019-04-11T14:41:00.968Z,12.80
2019-04-11T14:43:31.758Z,12.90
2019-04-11T14:48:56.614Z,12.90
2019-04-11T14:51:36.018Z,12.90
2019-04-11T14:54:11.785Z,12.90
2019-04-11T14:56:43.933Z,12.80
2019-04-11T14:59:27.951Z,12.70
2019-04-11T15:02:04.377Z,12.70
2019-04-11T15:04:53.902Z,12.70
2019-04-11T15:07:48.174Z,12.60
2019-04-11T15:10:34.534Z,12.70
2019-04-11T15:13:07.213Z,12.70
2019-04-11T15:15:38.535Z,12.60
2019-04-11T15:18:07.285Z,12.50
2019-04-11T15:20:42.366Z,12.50
2019-04-11T15:23:18.259Z,12.50
2019-04-11T15:25:55.193Z,12.40
2019-04-11T15:28:43.648Z,12.40
2019-04-11T15:31:38.553Z,12.30
2019-04-11T15:34:05.365Z,12.30
2019-04-11T15:36:35.581Z,12.40
2019-04-11T15:39:18.822Z,12.40
2019-04-11T15:41:48.919Z,12.50
2019-04-11T15:44:30.852Z,12.60
2019-04-11T15:47:01.027Z,12.70
2019-04-11T15:49:47.721Z,12.60
2019-04-11T15:52:17.705Z,12.70
2019-04-11T15:55:05.446Z,12.60
2019-04-11T15:57:36.493Z,12.60
2019-04-11T16:00:22.236Z,12.50
2019-04-11T16:02:52.299Z,12.40
2019-04-11T16:05:22.362Z,12.40
2019-04-11T16:07:58.178Z,12.40
2019-04-11T16:10:28.297Z,12.50
2019-04-11T16:13:13.446Z,12.40
2019-04-11T16:15:45.108Z,12.30
2019-04-11T16:18:17.669Z,12.40
2019-04-11T16:20:51.943Z,12.30
2019-04-11T16:23:37.163Z,12.30
2019-04-11T16:26:07.435Z,12.10
2019-04-11T16:28:55.968Z,12.20
2019-04-11T16:31:26.164Z,12.10
2019-04-11T16:34:11.331Z,12.10
2019-04-11T16:36:41.438Z,12.10
2019-04-11T16:39:27.983Z,12.10
2019-04-11T16:42:01.124Z,12.00
2019-04-11T16:44:46.154Z,11.90
2019-04-11T16:47:18.647Z,11.80
2019-04-11T16:49:47.181Z,11.80
2019-04-11T16:52:18.497Z,11.70
2019-04-11T16:54:46.963Z,11.60
2019-04-11T16:57:15.418Z,11.70
2019-04-11T16:59:43.891Z,11.70
2019-04-11T17:02:21.807Z,11.60
2019-04-11T17:04:55.632Z,11.60
2019-04-11T17:07:26.062Z,11.60
2019-04-11T17:09:56.903Z,11.50
2019-04-11T17:12:26.669Z,11.50
2019-04-11T17:14:55.596Z,11.30
2019-04-11T17:17:26.210Z,11.30
2019-04-11T17:19:54.316Z,11.20
2019-04-11T17:22:22.916Z,11.20
2019-04-11T17:24:51.456Z,11.20
2019-04-11T17:27:20.943Z,11.10
2019-04-11T17:29:54.802Z,11.10
2019-04-11T17:32:20.614Z,11.10
2019-04-11T17:34:49.115Z,11.00
2019-04-11T17:37:17.960Z,11.00
2019-04-11T17:39:46.440Z,11.00
2019-04-11T17:42:15.014Z,10.80
2019-04-11T17:44:43.511Z,10.80
2019-04-11T17:47:12.091Z,10.80
2019-04-11T17:49:40.575Z,10.60
2019-04-11T17:52:13.893Z,10.70
2019-04-11T17:54:42.338Z,10.60
2019-04-11T17:57:10.975Z,10.50
2019-04-11T17:59:43.517Z,10.50
2019-04-11T18:02:12.324Z,10.40
2019-04-11T18:04:44.009Z,10.30
2019-04-11T18:07:16.818Z,10.30
2019-04-11T18:09:45.906Z,10.30
2019-04-11T18:12:14.479Z,10.20
2019-04-11T18:14:42.990Z,10.10
2019-04-11T18:17:11.558Z,10.00
2019-04-11T18:19:44.336Z,10.00
2019-04-11T18:22:18.856Z,9.90
2019-04-11T18:24:49.886Z,9.90
2019-04-11T18:27:21.750Z,9.90
2019-04-11T18:29:52.550Z,9.90
2019-04-11T18:32:19.864Z,9.90
2019-04-11T18:34:48.361Z,9.80
2019-04-11T18:37:16.836Z,9.80
2019-04-11T18:39:45.628Z,9.70
2019-04-11T18:42:16.826Z,9.60
2019-04-11T18:44:50.280Z,9.50
2019-04-11T18:47:20.074Z,9.50
2019-04-11T18:49:53.244Z,9.50
2019-04-11T18:52:24.918Z,9.40
2019-04-11T18:54:52.300Z,9.40
2019-04-11T18:57:20.757Z,9.30
2019-04-11T18:59:50.431Z,9.20
2019-04-11T19:02:19.359Z,9.10
2019-04-11T19:04:47.967Z,9.10
2019-04-11T19:07:27.348Z,9.10
2019-04-11T19:09:49.620Z,9.00
2019-04-11T19:12:18.341Z,9.00
2019-04-11T19:14:49.464Z,9.00
2019-04-11T19:17:18.156Z,8.80
2019-04-11T19:19:48.631Z,8.70
2019-04-11T19:22:19.502Z,8.70
2019-04-11T19:24:47.140Z,8.60
2019-04-11T19:27:16.593Z,8.50
2019-04-11T19:29:48.393Z,8.50
2019-04-11T19:32:16.280Z,8.40
2019-04-11T19:34:44.777Z,8.30
2019-04-11T19:37:13.205Z,8.30
2019-04-11T19:39:45.155Z,8.30
2019-04-11T19:42:11.893Z,8.20
2019-04-11T19:44:50.463Z,8.20
2019-04-11T19:47:21.454Z,8.20
2019-04-11T19:49:49.156Z,8.10
2019-04-11T19:52:17.643Z,8.10
2019-04-11T19:54:46.180Z,7.90
2019-04-11T19:57:14.729Z,7.90
2019-04-11T19:59:43.236Z,7.90
2019-04-11T20:02:11.703Z,7.80
2019-04-11T20:04:40.157Z,7.80
2019-04-11T20:07:08.583Z,7.80
2019-04-11T20:12:56.526Z,7.80
2019-04-11T20:15:36.458Z,7.70
2019-04-11T20:17:55.151Z,7.70
2019-04-11T20:20:23.761Z,7.60
2019-04-11T20:22:58.864Z,7.50
2019-04-11T20:25:22.543Z,7.50
2019-04-11T20:27:57.144Z,7.40
2019-04-11T20:30:25.402Z,7.50
2019-04-11T20:32:54.698Z,7.40
2019-04-11T20:35:28.670Z,7.40
2019-04-11T20:37:54.337Z,7.30
2019-04-11T20:40:23.131Z,7.30
2019-04-11T20:42:53.887Z,7.30
2019-04-11T20:45:22.415Z,7.20
2019-04-11T20:47:50.868Z,7.10
2019-04-11T20:50:19.309Z,7.10
2019-04-11T20:52:47.755Z,7.10
2019-04-11T20:55:16.166Z,7.00
2019-04-11T20:57:44.602Z,7.00
2019-04-11T21:00:13.475Z,7.00
2019-04-11T21:02:41.943Z,7.00
2019-04-11T21:05:10.412Z,7.00
2019-04-11T21:07:39.231Z,6.90
2019-04-11T21:10:08.114Z,6.90
2019-04-11T21:12:37.303Z,6.80
2019-04-11T21:15:07.720Z,6.80
2019-04-11T21:17:36.132Z,6.80
2019-04-11T21:20:08.821Z,6.70
2019-04-11T21:22:37.292Z,6.80
2019-04-11T21:25:06.780Z,6.70
2019-04-11T21:27:35.235Z,6.60
2019-04-11T21:30:05.611Z,6.60
2019-04-11T21:32:34.129Z,6.60
2019-04-11T21:35:03.168Z,6.60
2019-04-11T21:37:31.620Z,6.50
2019-04-11T21:40:00.070Z,6.50
2019-04-11T21:42:28.609Z,6.50
2019-04-11T21:44:57.377Z,6.40
2019-04-11T21:47:25.800Z,6.40
2019-04-11T21:49:54.315Z,6.30
2019-04-11T21:52:22.816Z,6.30
2019-04-11T21:54:51.299Z,6.30
2019-04-11T21:57:19.748Z,6.30
2019-04-11T21:59:51.203Z,6.20
2019-04-11T22:02:18.644Z,6.30
2019-04-11T22:04:47.128Z,6.20
2019-04-11T22:07:15.562Z,6.10
2019-04-11T22:09:43.973Z,6.10
2019-04-11T22:12:12.434Z,6.00
2019-04-11T22:14:42.035Z,6.10
2019-04-11T22:17:14.959Z,6.10
2019-04-11T22:19:45.361Z,6.10
2019-04-11T22:22:11.400Z,5.90
2019-04-11T22:24:39.840Z,6.00
2019-04-11T22:27:08.295Z,5.90
2019-04-11T22:29:36.742Z,5.90
2019-04-11T22:32:05.157Z,5.80
2019-04-11T22:34:37.947Z,5.70
2019-04-11T22:37:06.424Z,5.60
2019-04-11T22:39:34.931Z,5.60
2019-04-11T22:42:03.382Z,5.70
2019-04-11T22:44:31.888Z,5.70
2019-04-11T22:47:00.304Z,5.60
2019-04-11T22:49:39.322Z,5.60
2019-04-11T22:52:12.355Z,5.60
2019-04-11T22:54:41.764Z,5.60
2019-04-11T22:57:12.294Z,5.50
2019-04-11T22:59:44.080Z,5.50
2019-04-11T23:02:21.373Z,5.50
2019-04-11T23:04:49.781Z,5.50
2019-04-11T23:07:18.523Z,5.50
2019-04-11T23:09:49.018Z,5.50
2019-04-11T23:12:17.349Z,5.50
2019-04-11T23:14:46.279Z,5.50
2019-04-11T23:17:14.873Z,5.50
2019-04-11T23:19:44.169Z,5.50
2019-04-11T23:22:13.228Z,5.40
2019-04-11T23:24:41.683Z,5.40
2019-04-11T23:27:10.078Z,5.50
2019-04-11T23:29:38.534Z,5.50
2019-04-11T23:32:07.097Z,5.40
2019-04-11T23:34:35.517Z,5.50
2019-04-11T23:37:03.941Z,5.40
2019-04-11T23:39:32.382Z,5.40
2019-04-11T23:42:00.824Z,5.40
2019-04-11T23:44:29.295Z,5.40
2019-04-11T23:46:57.951Z,5.50
2019-04-11T23:49:26.446Z,5.50
2019-04-11T23:51:55.885Z,5.40
2019-04-11T23:54:28.935Z,5.40
2019-04-11T23:56:55.391Z,5.40
2019-04-11T23:59:23.833Z,5.40
